Time;durP1;ratioP1;P1;durP2;ratioP2;P2;SDS_P1;SDS_P2;PMS_P1;PMS_P2;Temp;Humidity;BMP_temperature;BMP_pressure;BME280_temperature;BME280_humidity;BME280_pressure;Samples;Min_cycle;Max_cycle;Signal;HPM_P1;HPM_P2
2021/01/22 00:01:28;;;;;;;12.95;6.47;;;154.00;2201.60;;;;;;5095155;28;20032;-66
2021/01/22 00:03:53;;;;;;;15.50;7.10;;;154.00;2201.60;;;;;;5095119;28;20027;-66
2021/01/22 00:06:19;;;;;;;11.85;6.20;;;153.90;2227.20;;;;;;5095631;28;20091;-66
2021/01/22 00:08:45;;;;;;;13.45;6.53;;;153.80;2252.80;;;;;;5095124;28;20028;-66
2021/01/22 00:11:11;;;;;;;15.50;5.68;;;153.60;2252.80;;;;;;5095387;28;20032;-66
2021/01/22 00:13:36;;;;;;;13.20;5.88;;;153.60;2252.80;;;;;;5095437;28;20027;-66
2021/01/22 00:16:03;;;;;;;15.75;6.25;;;153.60;2252.80;;;;;;5094817;28;20059;-66
2021/01/22 00:18:29;;;;;;;13.98;6.05;;;153.60;2252.80;;;;;;5095490;28;20106;-66
2021/01/22 00:20:55;;;;;;;12.13;6.32;;;153.60;2252.80;;;;;;5095144;28;20480;-66
2021/01/22 00:23:20;;;;;;;11.25;5.70;;;153.60;2252.80;;;;;;5094297;28;20053;-66
2021/01/22 00:25:46;;;;;;;10.20;5.53;;;153.60;2252.80;;;;;;5095408;28;20028;-66
2021/01/22 00:28:12;;;;;;;9.82;4.35;;;153.60;2252.80;;;;;;5095082;28;20341;-66
2021/01/22 00:30:38;;;;;;;10.70;4.68;;;153.70;2252.80;;;;;;5095053;28;20386;-66
2021/01/22 00:33:03;;;;;;;8.98;5.20;;;153.70;2252.80;;;;;;5095061;28;20020;-66
2021/01/22 00:35:29;;;;;;;13.70;7.68;;;153.80;2252.80;;;;;;5095173;28;20031;-66
2021/01/22 00:37:55;;;;;;;14.35;6.60;;;153.80;2252.80;;;;;;5094403;28;20028;-66
2021/01/22 00:40:21;;;;;;;13.00;6.82;;;153.80;2252.80;;;;;;5094827;28;20028;-66
2021/01/22 00:42:46;;;;;;;13.50;6.72;;;153.80;2252.80;;;;;;5094989;28;20020;-66
2021/01/22 00:45:13;;;;;;;14.00;6.68;;;153.70;2252.80;;;;;;5094645;28;20031;-66
2021/01/22 00:47:38;;;;;;;11.90;6.07;;;153.70;2252.80;;;;;;5095131;28;20039;-66
2021/01/22 00:50:05;;;;;;;12.02;5.97;;;153.60;2252.80;;;;;;5094662;28;20039;-66
2021/01/22 00:52:31;;;;;;;13.55;6.15;;;153.70;2252.80;;;;;;5094739;28;20035;-66
2021/01/22 00:54:56;;;;;;;10.60;5.88;;;153.70;2252.80;;;;;;5095303;28;20028;-66
2021/01/22 00:57:22;;;;;;;13.27;5.20;;;153.60;2252.80;;;;;;5098163;28;20028;-66
2021/01/22 00:59:48;;;;;;;9.30;4.72;;;153.80;2252.80;;;;;;5098931;28;20028;-66
2021/01/22 01:02:14;;;;;;;8.77;4.47;;;153.90;2252.80;;;;;;5098656;28;20020;-66
2021/01/22 01:04:39;;;;;;;9.55;4.78;;;153.90;2252.80;;;;;;5098424;28;20056;-66
2021/01/22 01:07:05;;;;;;;9.38;4.70;;;153.90;2252.80;;;;;;5098357;28;20441;-66
2021/01/22 01:09:31;;;;;;;8.68;4.00;;;153.90;2252.80;;;;;;5098174;28;20081;-66
2021/01/22 01:11:57;;;;;;;10.35;4.13;;;154.10;2252.80;;;;;;5098377;28;20031;-66
2021/01/22 01:14:22;;;;;;;11.48;4.20;;;154.20;2252.80;;;;;;5098323;28;20425;-65
2021/01/22 01:16:48;;;;;;;7.95;4.13;;;154.30;2252.80;;;;;;5098056;28;20039;-66
2021/01/22 01:19:14;;;;;;;9.50;4.68;;;154.40;2252.80;;;;;;5098179;28;20189;-66
2021/01/22 01:21:40;;;;;;;14.48;5.50;;;154.40;2252.80;;;;;;5098471;28;20111;-66
2021/01/22 01:24:06;;;;;;;10.38;5.43;;;154.40;2227.20;;;;;;5098467;28;20031;-66
2021/01/22 01:26:32;;;;;;;10.85;5.35;;;154.50;2227.20;;;;;;5098122;28;20050;-66
2021/01/22 01:28:57;;;;;;;11.02;5.20;;;154.50;2227.20;;;;;;5088358;28;20032;-66
2021/01/22 01:31:23;;;;;;;12.88;6.07;;;154.50;2227.20;;;;;;5077673;28;20037;-66
2021/01/22 01:33:49;;;;;;;10.95;5.78;;;154.50;2227.20;;;;;;5099120;28;20085;-66
2021/01/22 01:36:15;;;;;;;11.68;5.45;;;154.50;2227.20;;;;;;5100460;28;20035;-66
2021/01/22 01:38:40;;;;;;;8.18;4.30;;;154.50;2227.20;;;;;;5100393;28;20016;-66
2021/01/22 01:41:06;;;;;;;10.60;4.47;;;154.50;2227.20;;;;;;5100077;28;20414;-66
2021/01/22 01:43:32;;;;;;;6.70;3.35;;;154.40;2227.20;;;;;;5099987;28;20024;-66
2021/01/22 01:45:58;;;;;;;9.20;4.07;;;154.40;2227.20;;;;;;5100280;28;20034;-66
2021/01/22 01:48:24;;;;;;;6.30;3.90;;;154.40;2252.80;;;;;;5100477;28;20073;-66
2021/01/22 01:50:50;;;;;;;7.82;4.72;;;154.40;2252.80;;;;;;5100179;28;20028;-66
2021/01/22 01:53:16;;;;;;;9.98;4.10;;;154.30;2252.80;;;;;;5099546;28;20019;-66
2021/01/22 01:55:42;;;;;;;11.43;3.80;;;154.20;2252.80;;;;;;5100075;28;20103;-66
2021/01/22 01:58:08;;;;;;;7.95;4.07;;;154.20;2252.80;;;;;;5100052;28;20399;-66
2021/01/22 02:00:35;;;;;;;8.07;3.35;;;154.20;2252.80;;;;;;5099672;28;20024;-66
2021/01/22 02:03:02;;;;;;;6.72;3.75;;;154.20;2252.80;;;;;;5100269;28;20020;-66
2021/01/22 02:05:28;;;;;;;8.32;4.57;;;154.30;2252.80;;;;;;5099628;28;20048;-66
2021/01/22 02:07:54;;;;;;;6.18;3.95;;;154.30;2252.80;;;;;;5098569;28;20111;-66
2021/01/22 02:10:20;;;;;;;6.40;3.58;;;154.30;2252.80;;;;;;5099758;28;20119;-66
2021/01/22 02:12:47;;;;;;;7.10;3.55;;;154.40;2252.80;;;;;;5100027;28;20024;-66
2021/01/22 02:15:15;;;;;;;10.63;4.20;;;154.40;2252.80;;;;;;5099454;28;20062;-66
2021/01/22 02:17:42;;;;;;;6.57;3.58;;;154.50;2252.80;;;;;;5099948;28;20111;-66
2021/01/22 02:20:23;;;;;;;6.35;3.42;;;179.20;2252.80;;;;;;5099878;28;20024;-66
2021/01/22 02:22:53;;;;;;;10.60;3.20;;;179.30;2252.80;;;;;;5099324;28;20084;-66
2021/01/22 02:25:31;;;;;;;7.80;3.38;;;179.30;2227.20;;;;;;5099526;28;20051;-66
2021/01/22 02:27:57;;;;;;;8.13;3.47;;;179.30;2252.80;;;;;;5099099;28;20418;-66
2021/01/22 02:30:23;;;;;;;7.32;3.10;;;179.20;2252.80;;;;;;5099428;28;20441;-66
2021/01/22 02:32:49;;;;;;;9.05;3.97;;;179.20;2252.80;;;;;;5099350;28;20070;-66
2021/01/22 02:35:22;;;;;;;7.22;3.33;;;179.30;2252.80;;;;;;5099060;28;20062;-66
2021/01/22 02:37:49;;;;;;;7.25;3.08;;;179.30;2252.80;;;;;;5099372;28;20028;-66
2021/01/22 02:40:17;;;;;;;7.90;3.30;;;179.50;2252.80;;;;;;5099471;28;20032;-66
2021/01/22 02:42:47;;;;;;;8.30;3.42;;;179.50;2252.80;;;;;;5098936;28;20042;-66
2021/01/22 02:45:15;;;;;;;5.88;3.42;;;179.50;2252.80;;;;;;5098852;28;20105;-66
2021/01/22 02:47:50;;;;;;;8.88;3.55;;;179.50;2252.80;;;;;;5099336;28;20059;-66
2021/01/22 02:50:17;;;;;;;5.60;3.08;;;179.60;2227.20;;;;;;5099142;28;20040;-66
2021/01/22 02:52:43;;;;;;;6.55;3.13;;;179.60;2227.20;;;;;;5098465;28;20020;-66
2021/01/22 02:55:12;;;;;;;8.43;3.00;;;179.70;2227.20;;;;;;5098956;28;20024;-66
2021/01/22 02:57:52;;;;;;;8.20;3.42;;;179.80;2201.60;;;;;;5098648;28;20024;-66
2021/01/22 03:00:28;;;;;;;5.60;3.20;;;179.80;2201.60;;;;;;5098788;28;20028;-66
2021/01/22 03:03:36;;;;;;;8.20;2.85;;;179.80;2201.60;;;;;;5098522;28;20020;-66
2021/01/22 03:06:03;;;;;;;7.97;3.42;;;179.80;2201.60;;;;;;5087247;28;20135;-66
2021/01/22 03:08:32;;;;;;;8.20;2.85;;;179.90;2176.00;;;;;;5098546;28;20036;-66
2021/01/22 03:10:58;;;;;;;;;;;180.00;2176.00;;;;;;5099088;28;20024;-66
2021/01/22 03:13:25;;;;;;;6.57;3.28;;;180.00;2176.00;;;;;;5098586;28;19927;-66
2021/01/22 03:15:52;;;;;;;6.13;3.17;;;180.00;2176.00;;;;;;5098465;28;20039;-66
2021/01/22 03:18:21;;;;;;;6.10;2.90;;;180.00;2176.00;;;;;;5098057;28;20027;-66
2021/01/22 03:20:48;;;;;;;8.95;3.33;;;179.90;2176.00;;;;;;5098685;28;20028;-66
2021/01/22 03:23:16;;;;;;;7.45;3.70;;;180.00;2176.00;;;;;;5098674;28;20020;-66
2021/01/22 03:25:42;;;;;;;8.27;3.30;;;180.00;2150.40;;;;;;5097728;28;20059;-66
2021/01/22 03:28:09;;;;;;;5.57;2.83;;;180.00;2150.40;;;;;;5097954;28;20413;-66
2021/01/22 03:30:35;;;;;;;7.10;3.45;;;180.10;2150.40;;;;;;5097881;28;20122;-66
2021/01/22 03:33:01;;;;;;;10.70;3.67;;;180.10;2150.40;;;;;;5098189;28;20020;-66
2021/01/22 03:35:27;;;;;;;9.07;3.45;;;204.80;2124.80;;;;;;5098391;28;20024;-66
2021/01/22 03:37:57;;;;;;;6.55;3.13;;;204.90;2124.80;;;;;;5098424;28;20080;-66
2021/01/22 03:40:26;;;;;;;7.40;3.13;;;204.90;2124.80;;;;;;5098374;28;20028;-66
2021/01/22 03:42:52;;;;;;;7.22;3.20;;;205.00;2124.80;;;;;;5098363;28;20463;-66
2021/01/22 03:45:18;;;;;;;6.75;2.85;;;205.10;2099.20;;;;;;5097452;28;20390;-66
2021/01/22 03:47:44;;;;;;;7.35;2.35;;;205.10;2099.20;;;;;;5097533;28;20119;-66
2021/01/22 03:50:10;;;;;;;8.27;2.92;;;205.10;2099.20;;;;;;5097959;28;20043;-66
2021/01/22 03:52:37;;;;;;;7.20;2.88;;;205.10;2099.20;;;;;;5097955;28;20078;-66
2021/01/22 03:55:03;;;;;;;5.68;2.75;;;205.10;2099.20;;;;;;5097856;28;20428;-66
2021/01/22 03:57:29;;;;;;;7.18;3.53;;;205.20;2073.60;;;;;;5097848;28;20063;-66
2021/01/22 03:59:55;;;;;;;8.88;2.80;;;205.20;2073.60;;;;;;5097791;28;20059;-66
2021/01/22 04:02:21;;;;;;;11.80;3.40;;;205.30;2073.60;;;;;;5094610;28;20046;-66
2021/01/22 04:04:47;;;;;;;8.85;3.08;;;205.30;2073.60;;;;;;5097405;28;20445;-66
2021/01/22 04:07:15;;;;;;;10.73;3.35;;;205.20;2048.00;;;;;;5097297;28;20067;-66
2021/01/22 04:09:41;;;;;;;6.55;3.55;;;205.20;2048.00;;;;;;5097896;28;20059;-66
2021/01/22 04:12:07;;;;;;;9.40;4.05;;;205.20;2073.60;;;;;;5097851;28;20059;-66
2021/01/22 04:14:32;;;;;;;9.32;3.70;;;205.10;2073.60;;;;;;5097552;28;20027;-66
2021/01/22 04:16:59;;;;;;;9.82;3.80;;;205.10;2073.60;;;;;;5097237;28;20031;-66
2021/01/22 04:19:25;;;;;;;5.47;3.00;;;205.00;2099.20;;;;;;5097504;28;20432;-66
2021/01/22 04:21:51;;;;;;;9.35;3.95;;;205.00;2073.60;;;;;;5093710;28;20107;-66
2021/01/22 04:24:17;;;;;;;8.30;3.15;;;205.00;2073.60;;;;;;5097178;28;20035;-66
2021/01/22 04:26:45;;;;;;;8.05;3.45;;;205.10;2073.60;;;;;;5097323;28;20422;-66
2021/01/22 04:29:12;;;;;;;9.17;4.03;;;205.00;2073.60;;;;;;5096821;28;20032;-66
2021/01/22 04:31:40;;;;;;;7.47;3.00;;;205.00;2073.60;;;;;;5096569;28;20259;-66
2021/01/22 04:34:05;;;;;;;8.85;3.28;;;205.00;2099.20;;;;;;5097645;28;20023;-66
2021/01/22 04:36:31;;;;;;;6.13;3.28;;;205.10;2073.60;;;;;;5097327;28;20418;-66
2021/01/22 04:38:57;;;;;;;5.82;2.70;;;205.10;2073.60;;;;;;5097013;28;20106;-66
2021/01/22 04:41:24;;;;;;;5.43;3.25;;;205.10;2073.60;;;;;;5097286;28;20463;-66
2021/01/22 04:43:50;;;;;;;8.70;3.05;;;205.10;2073.60;;;;;;5096741;28;20311;-66
2021/01/22 04:46:16;;;;;;;5.43;2.53;;;205.00;2073.60;;;;;;5096987;28;20024;-66
2021/01/22 04:48:43;;;;;;;9.00;2.92;;;205.10;2073.60;;;;;;5085543;28;20031;-65
2021/01/22 04:51:09;;;;;;;6.55;2.92;;;205.10;2073.60;;;;;;5088007;28;20056;-65
2021/01/22 04:53:37;;;;;;;8.20;2.90;;;205.10;2073.60;;;;;;5097424;28;20409;-66
2021/01/22 04:56:06;;;;;;;6.40;3.03;;;205.10;2073.60;;;;;;5089603;28;20425;-66
2021/01/22 04:58:32;;;;;;;;;;;205.00;2099.20;;;;;;5082328;28;20032;-65
2021/01/22 05:00:59;;;;;;;7.80;3.55;;;205.00;2073.60;;;;;;5084761;28;19923;-65
2021/01/22 05:03:28;;;;;;;7.50;3.03;;;204.90;2099.20;;;;;;5096792;28;20032;-65
2021/01/22 05:05:57;;;;;;;9.75;2.65;;;204.90;2099.20;;;;;;5090237;28;20049;-65
2021/01/22 05:08:23;;;;;;;7.93;2.80;;;205.00;2099.20;;;;;;5076171;28;20349;-65
2021/01/22 05:10:50;;;;;;;13.65;6.70;;;204.80;2099.20;;;;;;5085946;28;20029;-66
2021/01/22 05:13:15;;;;;;;12.10;7.65;;;204.90;2099.20;;;;;;5076286;28;20033;-65
2021/01/22 05:15:41;;;;;;;11.00;8.10;;;204.90;2099.20;;;;;;5076326;28;20035;-65
2021/01/22 05:18:10;;;;;;;12.38;7.97;;;205.00;2099.20;;;;;;5075726;28;20028;-66
2021/01/22 05:20:36;;;;;;;7.53;5.30;;;205.00;2099.20;;;;;;5075965;28;20047;-65
2021/01/22 05:23:07;;;;;;;6.93;3.42;;;205.00;2099.20;;;;;;5075577;28;20028;-65
2021/01/22 05:25:33;;;;;;;6.00;3.25;;;205.00;2099.20;;;;;;5076689;28;20111;-66
2021/01/22 05:28:00;;;;;;;9.95;3.38;;;204.80;2099.20;;;;;;5076286;28;20066;-66
2021/01/22 05:30:28;;;;;;;6.90;3.20;;;204.80;2099.20;;;;;;5076270;28;20032;-66
2021/01/22 05:33:17;;;;;;;8.75;3.72;;;204.90;2099.20;;;;;;5077215;28;20036;-66
2021/01/22 05:35:43;;;;;;;10.95;4.68;;;204.90;2099.20;;;;;;5076330;28;20115;-65
2021/01/22 05:38:09;;;;;;;11.98;5.88;;;204.90;2099.20;;;;;;5076559;28;20112;-66
2021/01/22 05:40:35;;;;;;;26.08;12.32;;;204.90;2099.20;;;;;;5076490;28;20028;-66
2021/01/22 05:43:01;;;;;;;43.58;19.38;;;204.90;2099.20;;;;;;5078533;28;20016;-65
2021/01/22 05:45:38;;;;;;;52.83;22.13;;;204.90;2099.20;;;;;;5080018;28;20028;-65
2021/01/22 05:48:05;;;;;;;9.60;4.13;;;204.80;2099.20;;;;;;5080183;28;20024;-66
2021/01/22 05:50:47;;;;;;;20.92;9.65;;;180.10;2124.80;;;;;;5079902;28;20311;-66
2021/01/22 05:53:17;;;;;;;65.28;29.13;;;204.80;2099.20;;;;;;5079385;28;20332;-65
2021/01/22 05:55:43;;;;;;;212.70;91.68;;;204.90;2099.20;;;;;;5080154;28;20115;-65
2021/01/22 05:58:08;;;;;;;67.60;27.08;;;204.90;2099.20;;;;;;5079841;28;20031;-66
2021/01/22 06:00:35;;;;;;;177.82;90.45;;;204.90;2073.60;;;;;;5080052;28;20024;-66
2021/01/22 06:03:20;;;;;;;78.30;44.40;;;204.90;2099.20;;;;;;5080021;28;20056;-66
2021/01/22 06:05:53;;;;;;;39.45;29.90;;;204.80;2099.20;;;;;;5079730;28;20040;-65
2021/01/22 06:08:19;;;;;;;56.55;35.72;;;204.90;2099.20;;;;;;5079601;28;20033;-65
2021/01/22 06:10:47;;;;;;;171.73;88.80;;;204.90;2073.60;;;;;;5079601;28;20342;-65
2021/01/22 06:13:14;;;;;;;106.23;59.33;;;204.80;2099.20;;;;;;5079296;28;20027;-65
2021/01/22 06:15:40;;;;;;;42.63;25.38;;;204.80;2099.20;;;;;;5079220;28;20253;-65
2021/01/22 06:18:08;;;;;;;39.40;24.15;;;204.80;2099.20;;;;;;5079130;28;20031;-65
2021/01/22 06:20:42;;;;;;;56.90;39.15;;;204.90;2099.20;;;;;;5078587;28;20325;-66
2021/01/22 06:23:14;;;;;;;51.58;38.13;;;204.90;2073.60;;;;;;5079055;28;20105;-65
2021/01/22 06:25:42;;;;;;;69.65;53.15;;;205.00;2073.60;;;;;;5079298;28;20028;-66
2021/01/22 06:28:12;;;;;;;17.10;14.02;;;205.00;2073.60;;;;;;5078692;28;20025;-65
2021/01/22 06:30:42;;;;;;;27.60;18.50;;;205.10;2048.00;;;;;;5078967;28;20058;-65
2021/01/22 06:33:08;;;;;;;15.32;11.35;;;205.20;2048.00;;;;;;5079155;28;20055;-65
2021/01/22 06:35:35;;;;;;;23.55;13.43;;;205.20;2022.40;;;;;;5079406;28;20024;-65
2021/01/22 06:38:04;;;;;;;19.23;13.00;;;205.20;2048.00;;;;;;5079104;28;20028;-65
2021/01/22 06:40:29;;;;;;;19.42;13.50;;;205.20;2022.40;;;;;;5079340;28;20027;-65
2021/01/22 06:42:56;;;;;;;30.83;27.00;;;205.30;2022.40;;;;;;5079236;28;20037;-65
2021/01/22 06:45:24;;;;;;;13.77;8.05;;;205.30;2022.40;;;;;;5079201;28;20020;-65
2021/01/22 06:47:57;;;;;;;18.60;11.50;;;205.30;2022.40;;;;;;5078852;28;20028;-65
2021/01/22 06:50:24;;;;;;;10.18;7.60;;;205.40;2022.40;;;;;;5078926;28;20032;-65
2021/01/22 06:53:10;;;;;;;25.38;13.93;;;205.50;1996.80;;;;;;5078493;28;20020;-65
2021/01/22 06:55:53;;;;;;;11.15;6.00;;;205.50;1996.80;;;;;;5078892;28;20040;-65
2021/01/22 06:58:28;;;;;;;7.38;4.50;;;205.50;1996.80;;;;;;5078905;28;20081;-66
2021/01/22 07:01:05;;;;;;;13.77;5.75;;;205.60;1996.80;;;;;;5077958;28;20074;-65
2021/01/22 07:03:37;;;;;;;8.48;4.15;;;205.60;1996.80;;;;;;5078616;28;20418;-65
2021/01/22 07:06:06;;;;;;;11.82;5.35;;;205.70;1971.20;;;;;;5078344;28;20094;-65
2021/01/22 07:08:55;;;;;;;9.77;5.35;;;205.70;1971.20;;;;;;5078089;28;20020;-65
2021/01/22 07:11:21;;;;;;;22.73;14.68;;;230.40;1945.60;;;;;;5078655;28;20055;-65
2021/01/22 07:13:47;;;;;;;12.10;7.15;;;230.50;1945.60;;;;;;5078318;28;20367;-65
2021/01/22 07:16:19;;;;;;;8.35;4.55;;;230.60;1920.00;;;;;;5077402;28;20066;-65
2021/01/22 07:18:47;;;;;;;11.65;7.25;;;230.70;1894.40;;;;;;5078826;28;20035;-65
2021/01/22 07:21:23;;;;;;;11.85;7.45;;;230.70;1894.40;;;;;;5078432;28;20402;-65
2021/01/22 07:23:58;;;;;;;9.73;6.57;;;230.80;1894.40;;;;;;5078206;28;20042;-65
2021/01/22 07:26:45;;;;;;;10.05;5.82;;;230.80;1894.40;;;;;;5078399;28;20073;-65
2021/01/22 07:29:24;;;;;;;8.20;4.35;;;231.00;1894.40;;;;;;5078309;28;20062;-65
2021/01/22 07:31:57;;;;;;;7.70;4.55;;;231.00;1868.80;;;;;;5078297;28;20050;-65
2021/01/22 07:34:46;;;;;;;8.70;6.10;;;231.10;1843.20;;;;;;5078245;28;20021;-65
2021/01/22 07:37:15;;;;;;;12.98;6.18;;;231.00;1868.80;;;;;;5077940;28;20027;-65
2021/01/22 07:39:42;;;;;;;15.00;10.88;;;231.00;1868.80;;;;;;5077899;28;20410;-65
2021/01/22 07:42:10;;;;;;;30.40;24.25;;;231.00;1868.80;;;;;;5077534;28;20032;-65
2021/01/22 07:44:38;;;;;;;26.65;21.20;;;231.00;1868.80;;;;;;5077507;28;20154;-65
2021/01/22 07:47:05;;;;;;;27.23;19.27;;;231.00;1868.80;;;;;;5077886;28;20119;-65
2021/01/22 07:49:31;;;;;;;12.20;9.10;;;231.00;1868.80;;;;;;5077950;28;20032;-66
2021/01/22 07:52:03;;;;;;;12.98;8.32;;;231.00;1868.80;;;;;;5077113;28;20024;-65
2021/01/22 07:54:41;;;;;;;11.90;6.32;;;231.00;1868.80;;;;;;5077538;28;20107;-65
2021/01/22 07:57:36;;;;;;;9.13;4.88;;;231.10;1868.80;;;;;;5076950;28;20028;-65
2021/01/22 08:00:22;;;;;;;9.60;5.13;;;231.10;1843.20;;;;;;5035138;28;20038;-65
2021/01/22 08:03:00;;;;;;;6.82;4.70;;;231.20;1843.20;;;;;;5035041;28;20473;-65
2021/01/22 08:05:33;;;;;;;18.70;5.32;;;231.20;1843.20;;;;;;5034259;28;20057;-65
2021/01/22 08:08:00;;;;;;;7.07;3.67;;;231.10;1868.80;;;;;;5035417;28;20128;-65
2021/01/22 08:10:30;;;;;;;5.97;3.58;;;231.30;1843.20;;;;;;5035409;28;20052;-65
2021/01/22 08:12:58;;;;;;;8.18;4.50;;;231.30;1843.20;;;;;;5035129;28;20029;-65
2021/01/22 08:15:24;;;;;;;11.23;5.07;;;256.00;1843.20;;;;;;5035418;28;20029;-65
2021/01/22 08:17:50;;;;;;;22.10;13.65;;;256.20;1817.60;;;;;;5034937;28;20040;-65
2021/01/22 08:20:18;;;;;;;8.70;6.03;;;256.20;1817.60;;;;;;5035028;28;20442;-65
2021/01/22 08:22:51;;;;;;;5.60;3.70;;;256.10;1817.60;;;;;;5035298;28;20033;-65
2021/01/22 08:25:26;;;;;;;6.30;4.32;;;256.30;1817.60;;;;;;5034758;28;20029;-65
2021/01/22 08:27:56;;;;;;;7.80;4.40;;;256.30;1792.00;;;;;;5034864;28;20029;-65
2021/01/22 08:30:24;;;;;;;8.73;4.40;;;256.50;1766.40;;;;;;5035044;28;20128;-65
2021/01/22 08:32:51;;;;;;;7.47;4.68;;;256.60;1766.40;;;;;;5034423;28;20079;-65
2021/01/22 08:35:17;;;;;;;11.77;5.68;;;256.60;1766.40;;;;;;5037005;28;20029;-65
2021/01/22 08:37:45;;;;;;;7.90;4.00;;;256.60;1766.40;;;;;;5076799;28;20024;-65
2021/01/22 08:40:11;;;;;;;9.60;5.32;;;256.80;1766.40;;;;;;5076797;28;20025;-65
2021/01/22 08:42:37;;;;;;;14.10;7.10;;;256.90;1740.80;;;;;;5077051;28;20021;-65
2021/01/22 08:45:06;;;;;;;12.93;8.07;;;281.60;1766.40;;;;;;5077013;28;20031;-65
2021/01/22 08:47:40;;;;;;;16.73;8.52;;;281.60;1766.40;;;;;;5076306;28;20332;-65
2021/01/22 08:50:06;;;;;;;11.25;9.23;;;281.70;1740.80;;;;;;5076764;28;20411;-65
2021/01/22 08:52:33;;;;;;;10.15;8.00;;;281.80;1740.80;;;;;;5077137;28;20031;-65
2021/01/22 08:54:59;;;;;;;11.23;7.18;;;281.80;1740.80;;;;;;5076954;28;20074;-65
2021/01/22 08:57:27;;;;;;;12.18;7.15;;;281.70;1740.80;;;;;;5076844;28;20247;-65
2021/01/22 08:59:56;;;;;;;17.95;7.95;;;281.80;1740.80;;;;;;5076766;28;20024;-65
2021/01/22 09:02:38;;;;;;;10.38;6.80;;;281.90;1740.80;;;;;;5076525;28;20028;-65
2021/01/22 09:05:10;;;;;;;9.30;5.85;;;282.00;1715.20;;;;;;5076668;28;20514;-65
2021/01/22 09:07:36;;;;;;;7.88;4.88;;;282.00;1715.20;;;;;;5076776;28;20033;-65
2021/01/22 09:10:03;;;;;;;10.60;4.88;;;282.10;1689.60;;;;;;5077072;28;20052;-65
2021/01/22 09:12:31;;;;;;;9.45;4.68;;;282.20;1715.20;;;;;;5077333;28;20020;-65
2021/01/22 09:15:04;;;;;;;11.27;5.50;;;282.10;1689.60;;;;;;5076471;28;20024;-66
2021/01/22 09:17:41;;;;;;;20.38;12.52;;;282.20;1689.60;;;;;;5079151;28;20032;-65
2021/01/22 09:20:33;;;;;;;27.38;19.23;;;282.30;1689.60;;;;;;5080802;28;20029;-65
2021/01/22 09:23:04;;;;;;;19.73;13.90;;;282.30;1689.60;;;;;;5079291;28;20033;-65
2021/01/22 09:25:30;;;;;;;15.27;10.43;;;282.20;1689.60;;;;;;5079368;28;20032;-65
2021/01/22 09:27:56;;;;;;;29.17;19.23;;;282.50;1664.00;;;;;;5079797;28;20132;-66
2021/01/22 09:30:24;;;;;;;31.63;21.30;;;307.30;1664.00;;;;;;5080596;28;20315;-66
2021/01/22 09:32:52;;;;;;;42.38;27.42;;;307.40;1664.00;;;;;;5080588;28;20020;-65
2021/01/22 09:35:19;;;;;;;27.30;15.18;;;307.60;1638.40;;;;;;5080249;28;20158;-65
2021/01/22 09:37:45;;;;;;;22.52;15.80;;;307.80;1612.80;;;;;;5080481;28;20036;-65
2021/01/22 09:40:12;;;;;;;16.60;11.48;;;307.90;1612.80;;;;;;5079913;28;20035;-65
2021/01/22 09:42:38;;;;;;;14.18;10.73;;;308.00;1587.20;;;;;;5080145;28;20021;-66
2021/01/22 09:45:06;;;;;;;20.65;12.05;;;308.10;1561.60;;;;;;5079416;28;20111;-65
2021/01/22 09:47:32;;;;;;;9.27;5.90;;;332.80;1587.20;;;;;;5079935;28;20035;-65
2021/01/22 09:49:57;;;;;;;12.13;7.72;;;333.10;1587.20;;;;;;5079375;28;20029;-66
2021/01/22 09:52:23;;;;;;;7.45;6.65;;;333.20;1561.60;;;;;;5079682;28;20032;-66
2021/01/22 09:54:49;;;;;;;10.35;6.82;;;333.30;1561.60;;;;;;5079479;28;20410;-66
2021/01/22 09:57:15;;;;;;;9.52;7.60;;;333.20;1561.60;;;;;;5079861;28;20433;-66
2021/01/22 09:59:41;;;;;;;7.72;5.75;;;333.40;1561.60;;;;;;5079822;28;20082;-66
2021/01/22 10:02:08;;;;;;;11.80;6.50;;;333.40;1536.00;;;;;;5080043;28;20031;-66
2021/01/22 10:04:37;;;;;;;8.48;6.13;;;333.50;1536.00;;;;;;5079656;28;20052;-66
2021/01/22 10:07:04;;;;;;;10.98;6.03;;;333.60;1536.00;;;;;;5079684;28;20040;-66
2021/01/22 10:09:30;;;;;;;7.75;4.80;;;333.60;1510.40;;;;;;5079643;28;20024;-66
2021/01/22 10:11:56;;;;;;;6.82;4.05;;;333.40;1536.00;;;;;;5079858;28;20029;-66
2021/01/22 10:14:22;;;;;;;13.93;11.05;;;333.70;1536.00;;;;;;5078961;28;20027;-66
2021/01/22 10:16:48;;;;;;;7.10;4.35;;;358.40;1510.40;;;;;;5079171;28;20078;-66
2021/01/22 10:19:14;;;;;;;6.18;4.38;;;333.70;1510.40;;;;;;5079222;28;20020;-66
2021/01/22 10:21:39;;;;;;;6.45;3.28;;;333.60;1510.40;;;;;;5078995;28;20056;-65
2021/01/22 10:24:05;;;;;;;7.72;4.63;;;333.30;1536.00;;;;;;5090143;28;20027;-64
2021/01/22 10:26:32;;;;;;;8.20;3.60;;;333.10;1561.60;;;;;;5096372;28;20026;-64
2021/01/22 10:28:58;;;;;;;7.85;3.70;;;333.20;1561.60;;;;;;5094494;28;20392;-64
2021/01/22 10:31:23;;;;;;;7.43;3.80;;;333.10;1561.60;;;;;;5096445;28;20039;-64
2021/01/22 10:33:49;;;;;;;7.57;4.50;;;332.90;1587.20;;;;;;5094213;28;20032;-64
2021/01/22 10:36:16;;;;;;;18.85;11.15;;;333.10;1587.20;;;;;;5097107;28;20024;-64
2021/01/22 10:38:42;;;;;;;36.65;23.30;;;333.10;1587.20;;;;;;5098461;28;20023;-64
2021/01/22 10:41:09;;;;;;;19.17;13.85;;;333.20;1561.60;;;;;;5098037;28;20089;-64
2021/01/22 10:43:35;;;;;;;15.40;8.02;;;333.30;1561.60;;;;;;5098579;28;20055;-64
2021/01/22 10:46:01;;;;;;;12.73;10.40;;;333.30;1561.60;;;;;;5097913;28;20028;-64
2021/01/22 10:48:28;;;;;;;10.52;6.78;;;333.40;1536.00;;;;;;5097686;28;20097;-64
2021/01/22 10:50:54;;;;;;;10.60;7.22;;;333.40;1536.00;;;;;;5099085;28;20410;-64
2021/01/22 10:53:21;;;;;;;8.98;5.88;;;333.70;1536.00;;;;;;5098107;28;20474;-65
2021/01/22 10:55:47;;;;;;;13.07;10.82;;;333.60;1536.00;;;;;;5098206;28;20085;-64
2021/01/22 10:58:13;;;;;;;9.57;8.27;;;333.30;1536.00;;;;;;5098354;28;20080;-64
2021/01/22 11:00:39;;;;;;;29.73;19.88;;;333.30;1561.60;;;;;;5098939;28;20367;-65
2021/01/22 11:03:05;;;;;;;10.85;5.10;;;333.20;1587.20;;;;;;5097812;28;20330;-66
2021/01/22 11:05:32;;;;;;;8.73;4.20;;;333.20;1561.60;;;;;;5098630;28;20063;-65
2021/01/22 11:07:58;;;;;;;12.73;7.82;;;333.20;1587.20;;;;;;5097331;28;20431;-65
2021/01/22 11:10:25;;;;;;;7.35;5.22;;;333.30;1561.60;;;;;;5097832;28;20035;-65
2021/01/22 11:12:51;;;;;;;11.50;6.30;;;333.60;1536.00;;;;;;5097632;28;20150;-65
2021/01/22 11:15:17;;;;;;;11.55;6.25;;;333.70;1536.00;;;;;;5098156;28;20397;-65
2021/01/22 11:17:43;;;;;;;14.50;8.10;;;333.70;1536.00;;;;;;5097851;28;20038;-65
2021/01/22 11:20:09;;;;;;;8.68;4.68;;;333.70;1536.00;;;;;;5098452;28;20111;-65
2021/01/22 11:22:36;;;;;;;10.05;6.47;;;333.70;1536.00;;;;;;5097995;28;20047;-65
2021/01/22 11:25:02;;;;;;;13.50;8.13;;;333.70;1536.00;;;;;;5098028;28;20073;-65
2021/01/22 11:27:28;;;;;;;16.83;9.05;;;333.60;1536.00;;;;;;5097531;28;20132;-65
2021/01/22 11:29:54;;;;;;;8.73;4.57;;;333.50;1536.00;;;;;;5098114;28;20411;-65
2021/01/22 11:32:20;;;;;;;7.88;5.22;;;333.20;1587.20;;;;;;5097866;28;20287;-65
2021/01/22 11:34:46;;;;;;;9.15;5.78;;;332.90;1612.80;;;;;;5098062;28;20093;-65
2021/01/22 11:37:12;;;;;;;7.93;5.63;;;332.80;1638.40;;;;;;5097686;28;20119;-65
2021/01/22 11:39:38;;;;;;;7.80;5.10;;;308.10;1612.80;;;;;;5097521;28;20039;-65
2021/01/22 11:42:08;;;;;;;7.32;4.32;;;332.80;1612.80;;;;;;5097791;28;20406;-65
2021/01/22 11:44:34;;;;;;;8.13;5.93;;;308.00;1612.80;;;;;;5096976;28;20028;-65
2021/01/22 11:47:00;;;;;;;11.80;6.35;;;308.10;1612.80;;;;;;5098155;28;20070;-65
2021/01/22 11:49:27;;;;;;;14.55;7.53;;;308.00;1612.80;;;;;;5096754;28;20047;-65
2021/01/22 11:51:53;;;;;;;8.98;5.70;;;307.90;1612.80;;;;;;5097168;28;20023;-65
2021/01/22 11:54:19;;;;;;;9.05;6.18;;;307.90;1638.40;;;;;;5097277;28;20028;-66
2021/01/22 11:56:51;;;;;;;11.20;6.22;;;307.80;1638.40;;;;;;5096786;28;20705;-65
2021/01/22 11:59:20;;;;;;;9.80;7.47;;;307.80;1638.40;;;;;;5096704;28;20020;-66
2021/01/22 12:01:47;;;;;;;;;;;307.80;1638.40;;;;;;5098190;28;20028;-66
2021/01/22 12:04:14;;;;;;;13.27;10.43;;;307.80;1638.40;;;;;;5096788;28;19914;-65
2021/01/22 12:06:39;;;;;;;21.15;14.02;;;307.80;1638.40;;;;;;5097076;28;20046;-66
2021/01/22 12:09:06;;;;;;;11.98;7.38;;;307.80;1638.40;;;;;;5097452;28;20122;-65
2021/01/22 12:11:33;;;;;;;15.90;10.45;;;307.70;1638.40;;;;;;5097156;28;20143;-65
2021/01/22 12:13:59;;;;;;;13.02;9.18;;;307.60;1664.00;;;;;;5097129;28;20463;-65
2021/01/22 12:16:25;;;;;;;15.60;7.95;;;307.70;1664.00;;;;;;5096958;28;20032;-66